Hovedside
METAR-TAF:

METAR-TAF

Lufthavner :

Haugesund lufthavn. Karmøy

Haugesund, Norge

breddegrad: 59-21N, lengdegrad: 005-13E, høyde over havet: 2 m

Gjeldene værobservasjon

Denne rapporten ble laget for 29 minutter siden, klokken 18:20 UTC
Vind 6 kt fra Øst-sørøst
Temperatur 1°C
Luftfuktighet 100%
Trykk 1035 hPa
Sikt: 8000 m
Få skyer i en høyde av 700 ft

METAR: ENHD 191820Z 12006KT 8000 FEW007 01/01 Q1035

Tid: 19:49 (18:49 UTC)

Varsel

Denne rapporten ble laget for 1 time og 49 minutter siden, klokken 17:00 UTC
Varsel gyldig fra 19. klokken 18 UTC til 19. klokken 21 UTC
Vind 5 kt fra Øst-sørøst
Sikt: 7000 m
Brutte skyer i en høyde av 500 ft
Midlertidig
fra 19. klokken 18 UTC til 19. klokken 21 UTC
Sikt: 0200 m
i en høyde av 200 ft
tåke
Sannsynlighet 30%
fra 19. klokken 18 UTC til 19. klokken 21 UTC
Spredte skyer i en høyde av 500 ft

TAF: ENHD 191700Z 1918/1921 11005KT 7000 BKN005 TEMPO 1918/1921 0200 FG VV002 PROB30 1918/1921 SCT005

Værobservasjoner og værvarsel for over 4000 flyplasser (METAR- og TAF-rapporter).

Tilgjengelige stasjoner er representert av de røde og gule prikkene på kartet.

Hold musepekeren over prikken for å se navnet på stasjonen.

Klikk så for å se værobservasjoner og -varsler.

For å forandre kartet kan du klikke på den grønne knappen med svart kryss for å zoome inn, på den grønne knappen med strek for å zoome ut, eller på de grønne pilene for å se tilstøtende kart.


METAR-TAF: